createdAt,value
2023-05-02T00:04:00.401Z,98629.41
2023-05-02T00:14:26.291Z,98626.40
2023-05-02T00:24:52.508Z,98618.90
2023-05-02T00:35:18.098Z,98618.04
2023-05-02T00:45:46.413Z,98615.36
2023-05-02T00:56:12.394Z,98610.70
2023-05-02T01:06:49.266Z,98610.80
2023-05-02T01:17:18.270Z,98609.59
2023-05-02T01:27:57.772Z,98609.69
2023-05-02T01:38:26.449Z,98610.92
2023-05-02T01:48:56.341Z,98611.42
2023-05-02T01:59:24.042Z,98610.73
2023-05-02T02:09:50.490Z,98608.62
2023-05-02T02:20:18.102Z,98610.62
2023-05-02T02:30:43.885Z,98606.48
2023-05-02T02:41:17.857Z,98610.23
2023-05-02T02:51:52.196Z,98608.61
2023-05-02T03:02:32.205Z,98610.90
2023-05-02T03:12:57.966Z,98621.05
2023-05-02T03:23:23.429Z,98615.10
2023-05-02T03:33:49.259Z,98614.96
2023-05-02T03:44:15.219Z,98617.15
2023-05-02T03:54:41.830Z,98621.05
2023-05-02T04:05:28.076Z,98623.22
2023-05-02T04:15:53.896Z,98622.84
2023-05-02T04:26:19.870Z,98625.01
2023-05-02T04:36:48.010Z,98627.61
2023-05-02T04:47:12.399Z,98633.14
2023-05-02T04:57:40.134Z,98637.02
2023-05-02T05:08:06.427Z,98637.05
2023-05-02T05:18:34.530Z,98643.33
2023-05-02T05:39:42.777Z,98668.20
2023-05-02T05:50:11.047Z,98676.02
2023-05-02T06:00:39.023Z,98668.73
2023-05-02T06:11:02.986Z,98659.95
2023-05-02T06:21:29.256Z,98657.13
2023-05-02T06:31:58.029Z,98671.19
2023-05-02T06:42:24.216Z,98674.45
2023-05-02T06:52:50.157Z,98689.92
2023-05-02T07:03:15.946Z,98700.16
2023-05-02T07:13:41.413Z,98705.67
2023-05-02T07:24:07.834Z,98719.17
2023-05-02T07:34:33.985Z,98721.40
2023-05-02T07:45:00.384Z,98732.67
2023-05-02T07:55:27.766Z,98741.66
2023-05-02T08:05:53.323Z,98738.64
2023-05-02T08:16:20.117Z,98741.83
2023-05-02T08:26:45.725Z,98730.80
2023-05-02T08:37:13.390Z,98735.91
2023-05-02T08:47:38.016Z,98741.98
2023-05-02T08:58:06.199Z,98758.95
2023-05-02T09:08:32.182Z,98763.69
2023-05-02T09:18:59.083Z,98755.96
2023-05-02T09:29:24.940Z,98758.20
2023-05-02T09:40:09.445Z,98762.80
2023-05-02T09:50:39.659Z,98768.61
2023-05-02T10:01:06.166Z,98773.39
2023-05-02T10:11:33.640Z,98778.55
2023-05-02T10:22:00.611Z,98779.66
2023-05-02T10:32:28.957Z,98782.59
2023-05-02T10:42:55.755Z,98786.90
2023-05-02T10:53:31.055Z,98792.60
2023-05-02T11:04:01.564Z,98789.08
2023-05-02T11:14:53.134Z,98793.13
2023-05-02T11:25:36.517Z,98803.79
2023-05-02T11:36:02.991Z,98812.90
2023-05-02T11:46:29.123Z,98832.15
2023-05-02T11:56:55.088Z,98830.96
2023-05-02T12:07:20.700Z,98834.39
2023-05-02T12:17:48.662Z,98838.95
2023-05-02T12:28:14.887Z,98841.55
2023-05-02T12:38:41.053Z,98856.84
2023-05-02T12:49:09.869Z,98865.20
2023-05-02T12:59:36.048Z,98858.50
2023-05-02T13:10:02.654Z,98861.99
2023-05-02T13:20:28.735Z,98863.91
2023-05-02T13:30:54.271Z,98871.13
2023-05-02T13:41:20.287Z,98872.11
2023-05-02T13:51:46.431Z,98876.20
2023-05-02T14:02:12.327Z,98874.00
2023-05-02T14:12:38.099Z,98878.96
2023-05-02T14:23:05.313Z,98886.42
2023-05-02T14:33:33.231Z,98909.30
2023-05-02T14:43:59.327Z,98920.79
2023-05-02T14:54:30.723Z,98928.34
2023-05-02T15:04:56.713Z,98944.19
2023-05-02T15:15:25.185Z,98971.27
2023-05-02T15:25:51.014Z,98987.45
2023-05-02T15:36:17.394Z,99000.45
2023-05-02T15:46:47.077Z,99012.59
2023-05-02T15:57:13.338Z,99015.45
2023-05-02T16:07:39.341Z,99019.86
2023-05-02T16:18:05.607Z,99029.77
2023-05-02T16:28:31.705Z,99035.55
2023-05-02T16:38:57.457Z,99039.28
2023-05-02T16:49:23.446Z,99054.94
2023-05-02T16:59:49.965Z,99055.60
2023-05-02T17:10:16.337Z,99069.14
2023-05-02T17:20:42.426Z,99083.42
2023-05-02T17:31:08.505Z,99097.89
2023-05-02T17:41:36.323Z,99113.77
2023-05-02T17:52:02.188Z,99122.93
2023-05-02T18:02:28.507Z,99142.10
2023-05-02T18:12:54.725Z,99154.09
2023-05-02T18:23:20.172Z,99157.63
2023-05-02T18:33:46.770Z,99171.98
2023-05-02T18:44:13.327Z,99182.58
2023-05-02T18:54:39.284Z,99184.61
2023-05-02T19:05:08.207Z,99189.08
2023-05-02T19:15:36.099Z,99195.44
2023-05-02T19:26:02.002Z,99202.37
2023-05-02T19:36:28.640Z,99200.69
2023-05-02T19:46:54.381Z,99198.52
2023-05-02T19:57:20.543Z,99200.35
2023-05-02T20:07:46.589Z,99204.75
2023-05-02T20:18:12.147Z,99203.75
2023-05-02T20:28:38.889Z,99212.36
2023-05-02T20:39:07.555Z,99226.35
2023-05-02T20:49:34.880Z,99238.15
2023-05-02T21:00:00.913Z,99248.02
2023-05-02T21:10:28.130Z,99255.20
2023-05-02T21:20:53.758Z,99265.95
2023-05-02T21:31:19.917Z,99273.52
2023-05-02T21:41:45.622Z,99283.28
2023-05-02T21:52:11.354Z,99294.14
2023-05-02T22:02:37.144Z,99300.17
2023-05-02T22:13:03.622Z,99309.39
2023-05-02T22:23:31.846Z,99316.20
2023-05-02T22:33:57.841Z,99316.45
2023-05-02T22:44:23.926Z,99322.71
2023-05-02T22:54:49.569Z,99321.33
2023-05-02T23:05:15.583Z,99325.72
2023-05-02T23:15:41.764Z,99325.72
2023-05-02T23:26:10.522Z,99316.33
2023-05-02T23:36:36.663Z,99315.05
2023-05-02T23:47:02.862Z,99308.91
2023-05-02T23:57:30.220Z,99305.92
